Terminal Aerodrome Forecast
Issued by NWS Twin Cities, MN

Home | Current Version | Previous Version | Text Only | Print | Product List | Glossary Off
Versions: 1 2 3 4 5 6 7 8 9 10 11 12 13 14 15 16 17 18 19 20 21 22 23 24 25 26 27 28

000
FTUS43 KMPX 252116 AAB
TAFMSP
TAF AMD
KMSP 252116Z 2521/2624 02010KT P6SM VCSH OVC009
     FM260000 02009KT 6SM BR OVC007
     FM260300 02008KT 4SM BR OVC005
     FM261500 07011KT 6SM BR OVC009=

USA.gov is the U.S. government's official web portal to all federal, state and local government web resources and services.